createdAt,value
2023-03-27T00:02:01.803Z,17.10
2023-03-27T00:04:36.012Z,13.70
2023-03-27T00:07:09.942Z,14.00
2023-03-27T00:09:44.939Z,19.20
2023-03-27T00:12:18.857Z,15.10
2023-03-27T00:14:52.968Z,15.30
2023-03-27T00:17:26.411Z,13.00
2023-03-27T00:20:00.064Z,15.30
2023-03-27T00:22:34.183Z,16.60
2023-03-27T00:25:08.027Z,14.30
2023-03-27T00:27:42.243Z,14.60
2023-03-27T00:30:16.307Z,15.90
2023-03-27T00:32:50.339Z,13.90
2023-03-27T00:35:25.635Z,12.50
2023-03-27T00:37:59.697Z,12.20
2023-03-27T00:40:34.108Z,12.90
2023-03-27T00:43:28.392Z,12.20
2023-03-27T00:46:15.437Z,14.00
2023-03-27T00:48:53.105Z,11.90
2023-03-27T00:51:28.780Z,12.90
2023-03-27T00:54:03.304Z,13.20
2023-03-27T00:56:42.039Z,14.10
2023-03-27T00:59:21.900Z,14.60
2023-03-27T01:01:56.164Z,13.90
2023-03-27T01:04:30.507Z,13.20
2023-03-27T01:07:06.238Z,14.20
2023-03-27T01:09:40.624Z,10.90
2023-03-27T01:12:51.974Z,11.90
2023-03-27T01:15:43.772Z,12.10
2023-03-27T01:18:57.684Z,13.70
2023-03-27T01:21:48.531Z,12.90
2023-03-27T01:24:56.446Z,16.50
2023-03-27T01:28:06.569Z,13.50
2023-03-27T01:30:52.905Z,11.70
2023-03-27T01:33:50.238Z,13.10
2023-03-27T01:36:56.184Z,12.40
2023-03-27T01:39:58.670Z,15.40
2023-03-27T01:43:14.689Z,11.90
2023-03-27T01:46:06.766Z,11.00
2023-03-27T01:51:44.485Z,16.40
2023-03-27T01:54:29.397Z,13.00
2023-03-27T01:57:25.411Z,12.50
2023-03-27T02:00:18.133Z,12.90
2023-03-27T02:03:02.388Z,11.90
2023-03-27T02:05:53.742Z,13.90
2023-03-27T02:08:38.031Z,13.90
2023-03-27T02:11:29.697Z,12.30
2023-03-27T02:14:21.078Z,12.60
2023-03-27T02:17:00.387Z,14.90
2023-03-27T02:19:48.180Z,22.60
2023-03-27T02:22:37.570Z,19.20
2023-03-27T02:25:43.327Z,19.40
2023-03-27T02:28:29.949Z,15.00
2023-03-27T02:31:40.760Z,13.70
2023-03-27T02:34:34.884Z,16.60
2023-03-27T02:37:20.282Z,15.40
2023-03-27T02:41:01.661Z,16.20
2023-03-27T02:44:02.358Z,15.30
2023-03-27T02:47:00.263Z,16.20
2023-03-27T02:49:43.900Z,17.10
2023-03-27T02:52:27.959Z,14.30
2023-03-27T02:55:11.281Z,16.40
2023-03-27T02:57:52.225Z,16.50
2023-03-27T03:00:49.550Z,16.00
2023-03-27T03:04:10.166Z,16.90
2023-03-27T03:07:14.814Z,12.90
2023-03-27T03:09:48.950Z,13.70
2023-03-27T03:12:22.264Z,13.50
2023-03-27T03:14:55.506Z,12.10
2023-03-27T03:17:28.754Z,14.70
2023-03-27T03:20:02.328Z,12.80
2023-03-27T03:22:37.047Z,10.80
2023-03-27T03:25:11.289Z,12.30
2023-03-27T03:27:46.587Z,11.90
2023-03-27T03:30:20.123Z,13.50
2023-03-27T03:33:02.903Z,35.30
2023-03-27T03:35:36.059Z,23.20
2023-03-27T03:38:16.796Z,18.70
2023-03-27T03:40:52.142Z,14.50
2023-03-27T03:43:27.978Z,13.90
2023-03-27T03:46:01.807Z,23.60
2023-03-27T03:48:35.109Z,42.40
2023-03-27T03:51:08.734Z,66.00
2023-03-27T03:53:42.174Z,41.70
2023-03-27T03:56:16.101Z,26.60
2023-03-27T03:58:49.903Z,17.40
2023-03-27T04:01:24.007Z,25.00
2023-03-27T04:04:00.717Z,16.20
2023-03-27T04:06:38.882Z,10.90
2023-03-27T04:09:12.105Z,9.20
2023-03-27T04:12:03.379Z,11.40
2023-03-27T04:15:08.206Z,13.10
2023-03-27T04:18:01.908Z,12.10
2023-03-27T04:20:36.020Z,12.40
2023-03-27T04:23:10.467Z,13.30
2023-03-27T04:25:46.935Z,12.50
2023-03-27T04:28:24.112Z,11.20
2023-03-27T04:31:08.289Z,11.90
2023-03-27T04:34:03.862Z,12.10
2023-03-27T04:36:58.502Z,11.30
2023-03-27T04:39:36.946Z,9.60
2023-03-27T04:42:10.965Z,14.90
2023-03-27T04:44:46.750Z,11.90
2023-03-27T04:47:21.130Z,14.20
2023-03-27T04:49:55.725Z,11.90
2023-03-27T04:52:33.891Z,13.50
2023-03-27T04:55:08.630Z,13.60
2023-03-27T04:57:42.458Z,14.10
2023-03-27T05:00:20.440Z,16.20
2023-03-27T05:02:56.731Z,14.10
2023-03-27T05:05:36.855Z,13.70
2023-03-27T05:08:11.842Z,16.50
2023-03-27T05:10:45.696Z,15.60
2023-03-27T05:13:19.249Z,17.00
2023-03-27T05:15:52.970Z,16.70
2023-03-27T05:18:31.283Z,16.80
2023-03-27T05:21:04.075Z,16.00
2023-03-27T05:23:38.202Z,23.50
2023-03-27T05:26:13.443Z,17.60
2023-03-27T05:29:00.978Z,18.40
2023-03-27T05:31:34.848Z,17.00
2023-03-27T05:34:29.099Z,21.00
2023-03-27T05:37:06.567Z,22.80
2023-03-27T05:39:47.347Z,20.70
2023-03-27T05:42:20.661Z,25.50
2023-03-27T05:44:54.009Z,24.10
2023-03-27T05:47:28.342Z,22.80
2023-03-27T05:50:01.871Z,22.50
2023-03-27T05:52:35.595Z,24.60
2023-03-27T05:55:09.485Z,23.30
2023-03-27T05:57:44.495Z,22.60
2023-03-27T06:00:26.029Z,22.30
2023-03-27T06:03:01.549Z,22.00
2023-03-27T06:05:56.419Z,19.80
2023-03-27T06:08:30.228Z,21.60
2023-03-27T06:11:03.853Z,18.80
2023-03-27T06:13:41.358Z,19.80
2023-03-27T06:16:17.484Z,20.90
2023-03-27T06:18:50.910Z,19.80
2023-03-27T06:21:25.502Z,15.60
2023-03-27T06:24:05.635Z,21.70
2023-03-27T06:26:39.713Z,18.80
2023-03-27T06:29:13.982Z,24.30
2023-03-27T06:31:54.383Z,23.50
2023-03-27T06:34:34.968Z,21.00
2023-03-27T06:37:34.540Z,20.80
2023-03-27T06:40:10.581Z,22.40
2023-03-27T06:42:55.418Z,27.60
2023-03-27T06:45:38.926Z,21.30
2023-03-27T06:48:32.228Z,23.60
2023-03-27T06:51:08.967Z,22.20
2023-03-27T06:53:42.577Z,23.00
2023-03-27T06:56:15.710Z,19.00
2023-03-27T06:59:13.787Z,17.70
2023-03-27T07:01:47.849Z,16.50
2023-03-27T07:04:54.234Z,13.90
2023-03-27T07:07:49.283Z,15.40
2023-03-27T07:10:24.509Z,14.70
2023-03-27T07:13:02.433Z,12.90
2023-03-27T07:15:36.877Z,13.00
2023-03-27T07:18:10.574Z,13.40
2023-03-27T07:20:44.208Z,13.60
2023-03-27T07:23:20.111Z,12.50
2023-03-27T07:26:02.441Z,11.00
2023-03-27T07:29:01.203Z,12.70
2023-03-27T07:34:18.995Z,12.00
2023-03-27T07:37:18.198Z,11.50
2023-03-27T07:40:33.039Z,12.60
2023-03-27T07:43:39.077Z,13.40
2023-03-27T07:46:12.860Z,12.40
2023-03-27T07:48:46.139Z,15.10
2023-03-27T07:51:23.804Z,13.90
2023-03-27T07:53:59.133Z,13.00
2023-03-27T07:56:39.114Z,15.40
2023-03-27T07:59:32.796Z,12.10
2023-03-27T08:02:18.350Z,12.60
2023-03-27T08:04:52.537Z,12.80
2023-03-27T08:07:26.414Z,13.40
2023-03-27T08:10:01.607Z,16.30
2023-03-27T08:12:42.860Z,17.70
2023-03-27T08:15:16.346Z,13.10
2023-03-27T08:17:56.758Z,13.70
2023-03-27T08:20:31.355Z,16.90
2023-03-27T08:23:04.863Z,13.30
2023-03-27T08:25:37.977Z,14.90
2023-03-27T08:28:13.098Z,15.40
2023-03-27T08:30:46.748Z,12.60
2023-03-27T08:33:19.968Z,14.10
2023-03-27T08:35:53.332Z,16.00
2023-03-27T08:38:33.880Z,16.60
2023-03-27T08:41:28.001Z,17.30
2023-03-27T08:44:31.288Z,13.80
2023-03-27T08:47:28.572Z,21.50
2023-03-27T08:50:29.789Z,16.20
2023-03-27T08:53:33.496Z,12.40
2023-03-27T08:56:08.189Z,11.80
2023-03-27T08:58:47.043Z,12.90
2023-03-27T09:02:01.741Z,11.80
2023-03-27T09:05:05.947Z,18.20
2023-03-27T09:07:57.469Z,12.40
2023-03-27T09:11:11.462Z,11.10
2023-03-27T09:13:54.260Z,13.10
2023-03-27T09:16:33.831Z,17.20
2023-03-27T09:19:38.336Z,16.20
2023-03-27T09:22:41.448Z,11.10
2023-03-27T09:25:30.567Z,12.20
2023-03-27T09:28:36.270Z,13.40
2023-03-27T09:31:35.845Z,17.30
2023-03-27T09:34:16.098Z,12.70
2023-03-27T09:36:52.113Z,14.00
2023-03-27T09:39:35.444Z,15.80
2023-03-27T09:42:28.482Z,12.70
2023-03-27T09:45:05.194Z,11.70
2023-03-27T09:48:01.904Z,13.20
2023-03-27T09:50:47.682Z,13.60
2023-03-27T09:54:00.624Z,9.60
2023-03-27T09:57:13.963Z,11.50
2023-03-27T10:00:10.492Z,13.60
2023-03-27T10:02:47.658Z,11.60
2023-03-27T10:05:25.719Z,10.70
2023-03-27T10:08:03.302Z,10.50
2023-03-27T10:10:58.454Z,15.10
2023-03-27T10:13:56.486Z,10.10
2023-03-27T10:16:32.053Z,12.90
2023-03-27T10:19:22.846Z,12.50
2023-03-27T10:21:57.917Z,11.60
2023-03-27T10:24:45.812Z,13.10
2023-03-27T10:27:54.326Z,12.00
2023-03-27T10:30:31.861Z,15.70
2023-03-27T10:33:40.463Z,10.50
2023-03-27T10:36:28.736Z,11.10
2023-03-27T10:39:08.107Z,11.30
2023-03-27T10:41:50.839Z,12.30
2023-03-27T10:44:28.271Z,10.40
2023-03-27T10:47:03.072Z,13.30
2023-03-27T10:49:54.945Z,12.60
2023-03-27T10:52:54.334Z,12.90
2023-03-27T10:56:10.040Z,14.90
2023-03-27T10:59:02.849Z,14.00
2023-03-27T11:01:47.924Z,11.40
2023-03-27T11:04:40.903Z,13.90
2023-03-27T11:07:27.849Z,9.70
2023-03-27T11:10:23.424Z,8.30
2023-03-27T11:13:08.669Z,11.30
2023-03-27T11:15:50.477Z,9.50
2023-03-27T11:19:08.648Z,17.50
2023-03-27T11:21:55.972Z,12.60
2023-03-27T11:24:45.759Z,22.90
2023-03-27T11:27:22.287Z,23.00
2023-03-27T11:30:30.427Z,12.20
2023-03-27T11:33:56.294Z,9.70
2023-03-27T11:36:54.378Z,11.30
2023-03-27T11:40:01.197Z,10.60
2023-03-27T11:42:40.439Z,9.30
2023-03-27T11:45:17.099Z,10.60
2023-03-27T11:47:57.790Z,25.20
2023-03-27T11:50:46.997Z,19.10
2023-03-27T11:53:39.463Z,12.60
2023-03-27T11:56:34.138Z,11.00
2023-03-27T11:59:50.878Z,10.10
2023-03-27T12:02:34.519Z,8.30
2023-03-27T12:05:26.288Z,12.80
2023-03-27T12:08:30.139Z,10.80
2023-03-27T12:11:05.565Z,10.00
2023-03-27T12:14:01.551Z,11.00
2023-03-27T12:17:28.131Z,97.30
2023-03-27T12:20:51.791Z,81.30
2023-03-27T12:24:05.871Z,81.10
2023-03-27T12:27:25.134Z,52.70
2023-03-27T12:30:19.456Z,29.20
2023-03-27T12:33:10.430Z,15.80
2023-03-27T12:35:54.357Z,53.60
2023-03-27T12:38:39.049Z,40.20
2023-03-27T12:41:14.592Z,19.90
2023-03-27T12:44:31.894Z,24.40
2023-03-27T12:47:15.919Z,17.60
2023-03-27T12:50:01.876Z,14.30
2023-03-27T12:52:41.222Z,14.70
2023-03-27T12:55:23.365Z,13.00
2023-03-27T13:01:01.150Z,13.20
2023-03-27T13:04:22.980Z,17.80
2023-03-27T13:07:23.993Z,14.80
2023-03-27T13:10:45.434Z,12.80
2023-03-27T13:13:46.131Z,14.80
2023-03-27T13:16:26.651Z,15.00
2023-03-27T13:19:23.429Z,10.90
2023-03-27T13:22:11.639Z,13.20
2023-03-27T13:25:11.837Z,8.00
2023-03-27T13:28:09.550Z,12.90
2023-03-27T13:30:57.139Z,12.40
2023-03-27T13:34:26.317Z,8.20
2023-03-27T13:37:18.431Z,13.20
2023-03-27T13:40:00.235Z,10.70
2023-03-27T13:42:43.277Z,8.90
2023-03-27T13:45:47.366Z,8.10
2023-03-27T13:49:11.452Z,9.00
2023-03-27T13:52:24.238Z,11.10
2023-03-27T13:55:17.828Z,10.90
2023-03-27T13:58:29.492Z,10.20
2023-03-27T14:01:28.129Z,12.30
2023-03-27T14:04:34.020Z,18.10
2023-03-27T14:07:39.911Z,15.00
2023-03-27T14:10:46.571Z,11.90
2023-03-27T14:13:22.387Z,13.70
2023-03-27T14:16:32.739Z,14.90
2023-03-27T14:19:51.070Z,11.80
2023-03-27T14:22:45.121Z,9.60
2023-03-27T14:25:20.941Z,10.10
2023-03-27T14:28:01.029Z,11.90
2023-03-27T14:30:50.723Z,10.00
2023-03-27T14:34:16.074Z,10.60
2023-03-27T14:36:52.421Z,13.30
2023-03-27T14:39:40.114Z,10.10
2023-03-27T14:42:22.970Z,14.50
2023-03-27T14:45:24.135Z,12.00
2023-03-27T14:48:05.570Z,13.10
2023-03-27T14:50:50.914Z,14.90
2023-03-27T14:53:36.862Z,13.90
2023-03-27T14:56:38.608Z,14.00
2023-03-27T14:59:38.178Z,13.50
2023-03-27T15:02:32.300Z,15.70
2023-03-27T15:05:19.673Z,15.10
2023-03-27T15:07:57.537Z,15.40
2023-03-27T15:10:54.447Z,13.40
2023-03-27T15:13:49.327Z,17.30
2023-03-27T15:16:32.627Z,16.70
2023-03-27T15:19:14.748Z,13.00
2023-03-27T15:21:59.805Z,12.30
2023-03-27T15:24:49.893Z,13.00
2023-03-27T15:27:35.397Z,12.10
2023-03-27T15:30:25.930Z,14.20
2023-03-27T15:33:02.488Z,13.00
2023-03-27T15:35:45.578Z,13.20
2023-03-27T15:38:20.187Z,11.90
2023-03-27T15:41:04.703Z,16.60
2023-03-27T15:43:37.592Z,14.00
2023-03-27T15:46:17.721Z,13.70
2023-03-27T15:48:58.114Z,17.40
2023-03-27T15:51:32.779Z,14.80
2023-03-27T15:54:26.540Z,17.50
2023-03-27T15:57:10.877Z,15.10
2023-03-27T15:59:53.016Z,14.80
2023-03-27T16:02:28.881Z,10.60
2023-03-27T16:05:02.239Z,10.90
2023-03-27T16:07:48.972Z,12.20
2023-03-27T16:10:34.213Z,12.20
2023-03-27T16:13:09.617Z,11.60
2023-03-27T16:15:45.597Z,13.00
2023-03-27T16:18:22.616Z,16.10
2023-03-27T16:20:55.907Z,12.60
2023-03-27T16:23:28.607Z,10.40
2023-03-27T16:26:03.634Z,11.10
2023-03-27T16:28:37.327Z,10.90
2023-03-27T16:31:20.881Z,13.10
2023-03-27T16:33:54.053Z,11.90
2023-03-27T16:36:34.078Z,11.80
2023-03-27T16:39:08.334Z,11.20
2023-03-27T16:41:41.666Z,13.20
2023-03-27T16:44:15.048Z,8.90
2023-03-27T16:46:48.644Z,11.50
2023-03-27T16:49:21.718Z,10.30
2023-03-27T16:51:54.669Z,9.70
2023-03-27T16:54:27.768Z,12.50
2023-03-27T16:57:01.627Z,11.80
2023-03-27T16:59:34.451Z,11.10
2023-03-27T17:02:07.364Z,10.30
2023-03-27T17:04:40.986Z,11.50
2023-03-27T17:07:13.803Z,11.20
2023-03-27T17:09:46.496Z,7.30
2023-03-27T17:12:19.377Z,9.40
2023-03-27T17:14:53.032Z,10.20
2023-03-27T17:17:27.699Z,9.80
2023-03-27T17:20:00.968Z,10.50
2023-03-27T17:22:33.931Z,9.40
2023-03-27T17:25:07.702Z,8.40
2023-03-27T17:27:41.099Z,9.90
2023-03-27T17:30:17.647Z,8.00
2023-03-27T17:32:55.960Z,9.00
2023-03-27T17:35:29.235Z,11.60
2023-03-27T17:38:02.501Z,10.60
2023-03-27T17:40:36.025Z,8.50
2023-03-27T17:43:09.316Z,11.80
2023-03-27T17:45:46.455Z,10.80
2023-03-27T17:48:21.337Z,6.40
2023-03-27T17:51:07.388Z,8.90
2023-03-27T17:53:44.757Z,11.40
2023-03-27T17:56:17.586Z,8.40
2023-03-27T17:58:50.857Z,9.80
2023-03-27T18:01:25.122Z,11.90
2023-03-27T18:04:00.953Z,10.30
2023-03-27T18:06:34.219Z,10.30
2023-03-27T18:09:07.748Z,9.10
2023-03-27T18:11:41.248Z,9.90
2023-03-27T18:14:14.979Z,9.80
2023-03-27T18:16:48.169Z,9.80
2023-03-27T18:19:21.369Z,10.40
2023-03-27T18:21:54.424Z,9.30
2023-03-27T18:24:27.345Z,9.80
2023-03-27T18:27:00.594Z,9.20
2023-03-27T18:29:34.990Z,9.80
2023-03-27T18:32:08.945Z,8.30
2023-03-27T18:34:42.484Z,7.70
2023-03-27T18:37:15.958Z,9.80
2023-03-27T18:39:48.664Z,11.80
2023-03-27T18:42:21.435Z,10.40
2023-03-27T18:44:54.816Z,10.80
2023-03-27T18:47:28.931Z,10.00
2023-03-27T18:50:02.451Z,9.40
2023-03-27T18:52:35.826Z,8.90
2023-03-27T18:55:09.743Z,7.80
2023-03-27T18:57:42.641Z,7.70
2023-03-27T19:00:18.870Z,10.50
2023-03-27T19:02:52.715Z,7.20
2023-03-27T19:05:25.998Z,9.50
2023-03-27T19:08:00.316Z,8.00
2023-03-27T19:10:35.992Z,9.30
2023-03-27T19:13:23.487Z,7.90
2023-03-27T19:15:56.646Z,7.70
2023-03-27T19:19:06.628Z,10.70
2023-03-27T19:21:46.989Z,7.60
2023-03-27T19:24:30.087Z,10.70
2023-03-27T19:27:03.254Z,8.70
2023-03-27T19:29:36.031Z,9.60
2023-03-27T19:32:08.964Z,8.80
2023-03-27T19:34:43.040Z,7.90
2023-03-27T19:37:16.190Z,7.50
2023-03-27T19:39:49.713Z,9.00
2023-03-27T19:42:22.442Z,10.20
2023-03-27T19:44:55.526Z,8.50
2023-03-27T19:47:28.549Z,8.40
2023-03-27T19:50:02.386Z,9.10
2023-03-27T19:53:08.289Z,11.40
2023-03-27T19:55:44.066Z,9.00
2023-03-27T19:58:16.978Z,7.80
2023-03-27T20:00:51.745Z,8.10
2023-03-27T20:03:29.845Z,7.20
2023-03-27T20:06:07.616Z,8.10
2023-03-27T20:08:41.417Z,8.40
2023-03-27T20:11:14.550Z,8.90
2023-03-27T20:13:56.153Z,7.80
2023-03-27T20:16:32.020Z,8.40
2023-03-27T20:19:05.432Z,8.90
2023-03-27T20:21:44.242Z,7.00
2023-03-27T20:24:19.628Z,11.20
2023-03-27T20:26:57.627Z,6.90
2023-03-27T20:29:31.550Z,8.00
2023-03-27T20:32:06.339Z,9.20
2023-03-27T20:34:41.001Z,6.90
2023-03-27T20:37:15.020Z,10.70
2023-03-27T20:40:07.972Z,10.20
2023-03-27T20:42:49.124Z,9.80
2023-03-27T20:45:27.657Z,7.70
2023-03-27T20:48:09.420Z,9.50
2023-03-27T20:50:56.292Z,8.20
2023-03-27T20:53:34.067Z,9.40
2023-03-27T20:56:09.546Z,8.70
2023-03-27T20:58:45.012Z,10.10
2023-03-27T21:01:21.774Z,8.70
2023-03-27T21:03:58.812Z,12.10
2023-03-27T21:06:32.313Z,7.80
2023-03-27T21:09:05.969Z,9.20
2023-03-27T21:11:39.877Z,9.20
2023-03-27T21:14:13.698Z,10.00
2023-03-27T21:16:46.616Z,8.80
2023-03-27T21:19:19.638Z,10.40
2023-03-27T21:21:53.239Z,11.20
2023-03-27T21:24:26.184Z,8.90
2023-03-27T21:27:00.433Z,9.40
2023-03-27T21:29:33.050Z,10.90
2023-03-27T21:32:06.202Z,9.10
2023-03-27T21:34:39.923Z,9.80
2023-03-27T21:37:13.764Z,9.60
2023-03-27T21:39:47.023Z,10.60
2023-03-27T21:42:22.068Z,8.70
2023-03-27T21:44:57.044Z,9.20
2023-03-27T21:47:44.632Z,10.60
2023-03-27T21:50:21.649Z,6.90
2023-03-27T21:52:54.961Z,7.70
2023-03-27T21:55:28.564Z,8.70
2023-03-27T21:58:01.973Z,9.70
2023-03-27T22:00:35.468Z,10.20
2023-03-27T22:03:09.283Z,10.60
2023-03-27T22:05:43.963Z,11.00
2023-03-27T22:08:19.633Z,11.10
2023-03-27T22:10:53.157Z,8.60
2023-03-27T22:13:26.704Z,9.60
2023-03-27T22:16:01.221Z,10.30
2023-03-27T22:18:35.151Z,8.40
2023-03-27T22:21:26.179Z,10.80
2023-03-27T22:24:00.629Z,10.90
2023-03-27T22:26:37.064Z,10.60
2023-03-27T22:29:11.241Z,11.30
2023-03-27T22:31:44.866Z,9.20
2023-03-27T22:34:18.684Z,8.60
2023-03-27T22:36:52.383Z,10.40
2023-03-27T22:39:26.044Z,11.30
2023-03-27T22:41:59.667Z,13.30
2023-03-27T22:44:33.555Z,11.40
2023-03-27T22:47:07.377Z,11.40
2023-03-27T22:49:40.497Z,9.50
2023-03-27T22:52:14.562Z,9.30
2023-03-27T22:54:47.636Z,10.70
2023-03-27T22:57:21.280Z,11.10
2023-03-27T22:59:54.470Z,9.00
2023-03-27T23:02:28.299Z,15.30
2023-03-27T23:05:02.426Z,9.90
2023-03-27T23:07:36.471Z,10.00
2023-03-27T23:10:10.214Z,10.50
2023-03-27T23:12:43.395Z,10.90
2023-03-27T23:15:17.136Z,10.10
2023-03-27T23:18:06.063Z,12.80
2023-03-27T23:20:41.030Z,8.90
2023-03-27T23:23:14.334Z,10.60
2023-03-27T23:25:47.358Z,12.40
2023-03-27T23:28:20.854Z,8.80
2023-03-27T23:31:09.340Z,9.40
2023-03-27T23:33:44.702Z,10.10
2023-03-27T23:36:24.002Z,8.90
2023-03-27T23:38:57.260Z,9.40
2023-03-27T23:41:30.646Z,11.80
2023-03-27T23:44:03.689Z,11.10
2023-03-27T23:46:36.693Z,11.90
2023-03-27T23:49:10.029Z,14.80
2023-03-27T23:51:43.118Z,14.80
2023-03-27T23:54:16.612Z,11.50
2023-03-27T23:56:50.389Z,12.00
2023-03-27T23:59:23.738Z,14.90
